createdAt,value
2022-12-01T00:00:21.238Z,8.60
2022-12-01T00:02:23.200Z,8.80
2022-12-01T00:04:25.071Z,9.25
2022-12-01T00:06:33.669Z,9.20
2022-12-01T00:08:39.476Z,8.38
2022-12-01T00:10:41.361Z,8.23
2022-12-01T00:12:43.735Z,9.18
2022-12-01T00:14:55.180Z,8.60
2022-12-01T00:16:57.022Z,8.52
2022-12-01T00:18:58.984Z,9.55
2022-12-01T00:21:00.771Z,9.75
2022-12-01T00:23:04.615Z,9.38
2022-12-01T00:25:07.742Z,9.88
2022-12-01T00:27:09.574Z,10.23
2022-12-01T00:29:11.676Z,10.13
2022-12-01T00:31:13.495Z,8.90
2022-12-01T00:33:16.326Z,8.65
2022-12-01T00:35:18.239Z,9.30
2022-12-01T00:37:20.113Z,8.95
2022-12-01T00:39:22.018Z,8.73
2022-12-01T00:41:26.647Z,8.23
2022-12-01T00:43:38.591Z,8.65
2022-12-01T00:45:40.422Z,7.78
2022-12-01T00:47:42.320Z,7.47
2022-12-01T00:49:46.664Z,8.10
2022-12-01T00:51:49.781Z,9.25
2022-12-01T00:53:58.189Z,8.43
2022-12-01T00:56:00.039Z,8.65
2022-12-01T00:58:01.862Z,8.63
2022-12-01T01:00:06.102Z,8.57
2022-12-01T01:02:08.771Z,8.57
2022-12-01T01:04:13.720Z,7.90
2022-12-01T01:06:15.931Z,9.00
2022-12-01T01:08:18.990Z,8.70
2022-12-01T01:10:20.831Z,9.10
2022-12-01T01:12:23.064Z,8.40
2022-12-01T01:14:25.572Z,8.90
2022-12-01T01:16:27.879Z,8.85
2022-12-01T01:18:32.147Z,9.10
2022-12-01T01:20:34.379Z,8.77
2022-12-01T01:22:36.240Z,8.55
2022-12-01T01:24:38.444Z,8.70
2022-12-01T01:26:40.285Z,8.63
2022-12-01T01:28:44.526Z,9.27
2022-12-01T01:30:48.511Z,8.65
2022-12-01T01:32:50.412Z,8.50
2022-12-01T01:34:52.430Z,8.80
2022-12-01T01:36:55.324Z,8.05
2022-12-01T01:38:57.362Z,8.75
2022-12-01T01:41:00.188Z,8.73
2022-12-01T01:43:02.043Z,8.40
2022-12-01T01:45:23.388Z,8.98
2022-12-01T01:47:39.991Z,9.45
2022-12-01T01:50:14.363Z,9.73
2022-12-01T01:52:17.659Z,9.10
2022-12-01T01:54:28.529Z,9.18
2022-12-01T01:56:33.221Z,8.90
2022-12-01T01:58:37.659Z,9.65
2022-12-01T02:00:42.509Z,9.43
2022-12-01T02:02:47.706Z,8.88
2022-12-01T02:04:57.014Z,9.40
2022-12-01T02:06:59.149Z,9.38
2022-12-01T02:09:01.035Z,8.95
2022-12-01T02:11:21.510Z,8.38
2022-12-01T02:13:49.042Z,8.82
2022-12-01T02:16:14.666Z,8.60
2022-12-01T02:18:41.680Z,7.90
2022-12-01T02:20:57.323Z,8.18
2022-12-01T02:23:30.870Z,8.23
2022-12-01T02:25:51.130Z,8.93
2022-12-01T02:28:16.197Z,8.38
2022-12-01T02:30:38.154Z,7.60
2022-12-01T02:33:17.496Z,8.65
2022-12-01T02:35:19.294Z,8.55
2022-12-01T02:37:37.739Z,8.52
2022-12-01T02:39:51.685Z,8.38
2022-12-01T02:42:04.316Z,9.25
2022-12-01T02:44:14.438Z,8.90
2022-12-01T02:46:28.241Z,8.27
2022-12-01T02:48:34.898Z,7.68
2022-12-01T02:50:39.777Z,8.10
2022-12-01T02:52:43.247Z,8.35
2022-12-01T02:54:47.458Z,8.45
2022-12-01T02:56:52.882Z,8.05
2022-12-01T02:58:55.017Z,8.00
2022-12-01T03:01:38.099Z,8.40
2022-12-01T03:03:47.554Z,7.75
2022-12-01T03:06:03.236Z,8.32
2022-12-01T03:08:30.055Z,8.70
2022-12-01T03:10:34.704Z,8.73
2022-12-01T03:12:46.010Z,9.45
2022-12-01T03:15:21.733Z,9.18
2022-12-01T03:17:40.834Z,9.38
2022-12-01T03:20:11.911Z,9.75
2022-12-01T03:22:23.185Z,8.07
2022-12-01T03:24:27.977Z,8.65
2022-12-01T03:26:42.013Z,10.13
2022-12-01T03:28:58.792Z,8.30
2022-12-01T03:31:07.428Z,8.93
2022-12-01T03:33:27.188Z,7.78
2022-12-01T03:35:48.353Z,8.27
2022-12-01T03:37:57.962Z,8.57
2022-12-01T03:40:02.628Z,8.90
2022-12-01T03:42:15.927Z,8.15
2022-12-01T03:44:34.861Z,7.57
2022-12-01T03:47:07.054Z,8.02
2022-12-01T03:51:35.218Z,8.95
2022-12-01T03:53:58.321Z,9.27
2022-12-01T03:56:06.107Z,8.20
2022-12-01T03:58:14.585Z,8.18
2022-12-01T04:00:17.704Z,8.32
2022-12-01T04:02:19.795Z,8.65
2022-12-01T04:04:22.707Z,8.73
2022-12-01T04:06:24.536Z,8.55
2022-12-01T04:08:33.861Z,8.48
2022-12-01T04:10:36.876Z,7.55
2022-12-01T04:12:40.706Z,8.05
2022-12-01T04:14:42.520Z,9.65
2022-12-01T04:16:44.388Z,8.65
2022-12-01T04:18:46.628Z,8.38
2022-12-01T04:20:55.658Z,8.52
2022-12-01T04:22:57.592Z,8.77
2022-12-01T04:25:07.177Z,8.93
2022-12-01T04:27:09.039Z,8.65
2022-12-01T04:29:12.116Z,8.55
2022-12-01T04:31:14.028Z,8.73
2022-12-01T04:33:16.903Z,8.38
2022-12-01T04:35:31.972Z,8.63
2022-12-01T04:37:35.075Z,8.07
2022-12-01T04:39:37.126Z,9.00
2022-12-01T04:41:44.962Z,8.45
2022-12-01T04:43:47.823Z,9.20
2022-12-01T04:45:49.712Z,8.52
2022-12-01T04:47:54.583Z,8.43
2022-12-01T04:50:03.567Z,8.85
2022-12-01T04:52:06.462Z,8.30
2022-12-01T04:54:13.369Z,8.93
2022-12-01T04:56:17.633Z,8.50
2022-12-01T04:58:21.514Z,8.68
2022-12-01T05:00:31.387Z,8.00
2022-12-01T05:02:34.043Z,9.25
2022-12-01T05:04:38.902Z,8.57
2022-12-01T05:06:41.415Z,8.93
2022-12-01T05:09:07.953Z,8.25
2022-12-01T05:11:12.457Z,8.60
2022-12-01T05:13:14.272Z,9.50
2022-12-01T05:15:17.818Z,8.98
2022-12-01T05:17:19.712Z,9.02
2022-12-01T05:19:40.196Z,9.90
2022-12-01T05:21:44.721Z,10.23
2022-12-01T05:23:55.152Z,9.15
2022-12-01T05:25:58.338Z,9.68
2022-12-01T05:28:00.875Z,9.52
2022-12-01T05:30:05.340Z,9.35
2022-12-01T05:32:08.334Z,9.10
2022-12-01T05:34:10.229Z,9.57
2022-12-01T05:36:20.105Z,9.85
2022-12-01T05:38:30.881Z,9.52
2022-12-01T05:40:34.210Z,10.07
2022-12-01T05:42:37.092Z,9.52
2022-12-01T05:44:44.693Z,10.80
2022-12-01T05:46:46.591Z,10.57
2022-12-01T05:48:51.433Z,10.82
2022-12-01T05:50:53.293Z,10.60
2022-12-01T05:52:55.190Z,10.73
2022-12-01T05:55:04.847Z,9.85
2022-12-01T05:57:07.694Z,10.13
2022-12-01T05:59:11.600Z,9.85
2022-12-01T06:01:14.847Z,10.63
2022-12-01T06:03:16.783Z,11.05
2022-12-01T06:05:18.746Z,10.60
2022-12-01T06:07:21.262Z,10.63
2022-12-01T06:09:23.206Z,11.23
2022-12-01T06:11:25.113Z,10.20
2022-12-01T06:13:32.914Z,10.35
2022-12-01T06:15:35.766Z,10.40
2022-12-01T06:17:40.523Z,10.85
2022-12-01T06:19:48.104Z,10.93
2022-12-01T06:21:52.198Z,9.73
2022-12-01T06:23:54.858Z,10.18
2022-12-01T06:25:56.814Z,10.57
2022-12-01T06:27:58.991Z,11.55
2022-12-01T06:30:04.783Z,11.23
2022-12-01T06:32:07.806Z,11.30
2022-12-01T06:34:12.028Z,11.48
2022-12-01T06:36:19.862Z,10.98
2022-12-01T06:38:21.782Z,11.50
2022-12-01T06:40:23.748Z,11.35
2022-12-01T06:42:35.012Z,11.00
2022-12-01T06:44:49.852Z,11.30
2022-12-01T06:46:53.101Z,10.98
2022-12-01T06:48:58.181Z,11.95
2022-12-01T06:51:00.956Z,11.30
2022-12-01T06:53:02.917Z,10.40
2022-12-01T06:55:08.316Z,10.38
2022-12-01T06:57:10.293Z,9.88
2022-12-01T06:59:15.482Z,10.35
2022-12-01T07:01:19.349Z,9.85
2022-12-01T07:03:22.373Z,9.57
2022-12-01T07:05:31.131Z,9.40
2022-12-01T07:07:36.332Z,9.20
2022-12-01T07:09:38.385Z,9.02
2022-12-01T07:11:47.060Z,8.70
2022-12-01T07:13:51.117Z,9.85
2022-12-01T07:15:55.084Z,10.20
2022-12-01T07:18:00.224Z,10.25
2022-12-01T07:20:02.583Z,9.75
2022-12-01T07:22:13.772Z,10.02
2022-12-01T07:24:17.732Z,11.15
2022-12-01T07:26:22.883Z,10.70
2022-12-01T07:28:35.776Z,10.50
2022-12-01T07:30:43.916Z,9.57
2022-12-01T07:35:06.800Z,9.55
2022-12-01T07:37:09.756Z,10.48
2022-12-01T07:39:12.903Z,9.60
2022-12-01T07:41:19.367Z,8.90
2022-12-01T07:43:24.380Z,9.77
2022-12-01T07:45:27.259Z,9.23
2022-12-01T07:47:44.751Z,10.68
2022-12-01T07:49:48.059Z,11.02
2022-12-01T07:51:52.277Z,10.52
2022-12-01T07:53:54.904Z,10.80
2022-12-01T07:55:57.011Z,10.40
2022-12-01T07:58:01.553Z,11.02
2022-12-01T08:00:25.274Z,10.40
2022-12-01T08:02:39.709Z,11.00
2022-12-01T08:04:46.731Z,9.55
2022-12-01T08:06:58.400Z,10.48
2022-12-01T08:09:25.106Z,10.50
2022-12-01T08:11:30.068Z,9.80
2022-12-01T08:13:41.107Z,9.73
2022-12-01T08:15:50.223Z,8.93
2022-12-01T08:17:53.162Z,6.85
2022-12-01T08:19:55.065Z,7.55
2022-12-01T08:22:09.065Z,7.00
2022-12-01T08:24:11.947Z,6.72
2022-12-01T08:26:19.178Z,7.13
2022-12-01T08:28:21.411Z,7.10
2022-12-01T08:30:31.131Z,7.20
2022-12-01T08:32:33.091Z,7.60
2022-12-01T08:34:39.030Z,7.60
2022-12-01T08:36:49.572Z,7.07
2022-12-01T08:38:55.685Z,7.53
2022-12-01T08:41:09.029Z,8.30
2022-12-01T08:43:23.050Z,8.20
2022-12-01T08:45:33.372Z,8.93
2022-12-01T08:47:37.267Z,8.18
2022-12-01T08:49:39.167Z,8.95
2022-12-01T08:51:43.083Z,8.98
2022-12-01T08:53:48.027Z,9.65
2022-12-01T08:55:49.934Z,9.77
2022-12-01T08:57:52.805Z,10.35
2022-12-01T08:59:56.052Z,10.77
2022-12-01T09:01:59.675Z,10.88
2022-12-01T09:04:06.214Z,10.60
2022-12-01T09:06:13.838Z,10.48
2022-12-01T09:08:31.654Z,9.30
2022-12-01T09:10:35.733Z,10.10
2022-12-01T09:12:37.737Z,10.52
2022-12-01T09:14:48.333Z,9.93
2022-12-01T09:16:51.201Z,10.30
2022-12-01T09:18:53.049Z,9.63
2022-12-01T09:20:55.903Z,9.95
2022-12-01T09:22:57.843Z,10.20
2022-12-01T09:24:59.734Z,9.95
2022-12-01T09:27:03.520Z,10.75
2022-12-01T09:29:10.287Z,10.45
2022-12-01T09:31:13.510Z,10.68
2022-12-01T09:33:17.499Z,11.10
2022-12-01T09:35:25.289Z,11.85
2022-12-01T09:37:27.211Z,13.02
2022-12-01T09:39:29.924Z,11.85
2022-12-01T09:41:43.389Z,12.23
2022-12-01T09:44:14.298Z,12.55
2022-12-01T09:46:21.566Z,13.40
2022-12-01T09:48:34.832Z,13.20
2022-12-01T09:50:37.737Z,12.80
2022-12-01T09:52:47.857Z,12.80
2022-12-01T09:54:50.250Z,12.23
2022-12-01T09:56:55.577Z,12.32
2022-12-01T09:59:01.850Z,13.13
2022-12-01T10:01:04.170Z,12.63
2022-12-01T10:03:15.910Z,13.88
2022-12-01T10:05:22.232Z,13.02
2022-12-01T10:07:49.108Z,12.85
2022-12-01T10:09:59.193Z,13.90
2022-12-01T10:12:30.710Z,12.90
2022-12-01T10:14:37.112Z,13.52
2022-12-01T10:17:15.247Z,12.85
2022-12-01T10:19:28.949Z,12.45
2022-12-01T10:21:46.246Z,12.18
2022-12-01T10:24:15.418Z,12.82
2022-12-01T10:26:42.403Z,12.70
2022-12-01T10:29:00.250Z,12.30
2022-12-01T10:31:17.530Z,11.98
2022-12-01T10:33:34.259Z,12.85
2022-12-01T10:35:39.569Z,13.73
2022-12-01T10:37:42.017Z,12.80
2022-12-01T10:39:48.411Z,12.52
2022-12-01T10:41:52.328Z,11.73
2022-12-01T10:44:01.001Z,12.63
2022-12-01T10:46:26.280Z,11.52
2022-12-01T10:48:28.164Z,11.07
2022-12-01T10:50:30.209Z,11.70
2022-12-01T10:52:40.272Z,10.90
2022-12-01T10:54:43.146Z,11.18
2022-12-01T10:56:48.297Z,12.02
2022-12-01T10:59:02.918Z,12.07
2022-12-01T11:01:18.748Z,10.32
2022-12-01T11:03:24.144Z,10.23
2022-12-01T11:05:33.614Z,11.30
2022-12-01T11:07:43.430Z,10.10
2022-12-01T11:10:13.310Z,10.38
2022-12-01T11:12:20.321Z,10.05
2022-12-01T11:14:43.534Z,11.82
2022-12-01T11:17:27.060Z,11.95
2022-12-01T11:19:35.337Z,11.35
2022-12-01T11:21:58.922Z,11.85
2022-12-01T11:24:00.927Z,12.07
2022-12-01T11:26:32.422Z,10.57
2022-12-01T11:28:40.893Z,11.90
2022-12-01T11:30:43.482Z,12.98
2022-12-01T11:32:54.008Z,12.48
2022-12-01T11:35:18.327Z,13.18
2022-12-01T11:37:24.075Z,12.52
2022-12-01T11:39:44.941Z,12.85
2022-12-01T11:41:58.097Z,13.65
2022-12-01T11:47:07.779Z,14.50
2022-12-01T11:49:23.379Z,12.85
2022-12-01T11:51:32.201Z,13.07
2022-12-01T11:53:39.820Z,13.80
2022-12-01T11:55:41.817Z,14.35
2022-12-01T11:57:46.385Z,13.93
2022-12-01T12:00:21.129Z,13.93
2022-12-01T12:02:36.025Z,14.02
2022-12-01T12:05:04.459Z,13.88
2022-12-01T12:07:35.550Z,14.35
2022-12-01T12:09:52.700Z,14.60
2022-12-01T12:11:57.422Z,15.65
2022-12-01T12:14:02.436Z,18.13
2022-12-01T12:16:25.336Z,19.60
2022-12-01T12:18:58.207Z,23.77
2022-12-01T12:21:14.813Z,24.13
2022-12-01T12:23:46.682Z,27.17
2022-12-01T12:26:01.679Z,24.30
2022-12-01T12:28:39.093Z,25.10
2022-12-01T12:31:05.516Z,25.38
2022-12-01T12:33:39.778Z,24.23
2022-12-01T12:36:06.592Z,25.38
2022-12-01T12:38:37.050Z,23.73
2022-12-01T12:41:17.514Z,22.92
2022-12-01T12:43:30.146Z,19.65
2022-12-01T12:46:09.901Z,20.02
2022-12-01T12:48:50.868Z,19.77
2022-12-01T12:51:40.638Z,19.90
2022-12-01T12:53:51.752Z,19.67
2022-12-01T12:55:59.592Z,20.27
2022-12-01T12:58:36.026Z,20.38
2022-12-01T13:00:46.852Z,21.40
2022-12-01T13:02:55.632Z,21.35
2022-12-01T13:05:24.102Z,21.55
2022-12-01T13:07:46.278Z,20.67
2022-12-01T13:09:55.522Z,20.08
2022-12-01T13:12:25.096Z,20.40
2022-12-01T13:14:36.818Z,20.13
2022-12-01T13:16:49.097Z,21.00
2022-12-01T13:19:26.256Z,21.15
2022-12-01T13:21:47.140Z,23.88
2022-12-01T13:23:56.236Z,22.95
2022-12-01T13:26:01.952Z,23.75
2022-12-01T13:28:15.056Z,21.35
2022-12-01T13:30:28.303Z,21.27
2022-12-01T13:32:46.949Z,21.05
2022-12-01T13:34:49.817Z,20.45
2022-12-01T13:36:59.068Z,19.27
2022-12-01T13:39:19.956Z,20.48
2022-12-01T13:41:34.204Z,19.98
2022-12-01T13:43:48.297Z,20.75
2022-12-01T13:45:51.768Z,21.30
2022-12-01T13:47:56.237Z,21.40
2022-12-01T13:50:39.168Z,20.02
2022-12-01T13:52:51.264Z,17.95
2022-12-01T13:55:12.181Z,17.05
2022-12-01T13:57:27.982Z,17.75
2022-12-01T14:00:05.880Z,16.00
2022-12-01T14:02:16.116Z,14.30
2022-12-01T14:04:27.962Z,14.45
2022-12-01T14:09:17.025Z,13.77
2022-12-01T14:11:22.364Z,14.00
2022-12-01T14:13:26.032Z,12.88
2022-12-01T14:15:42.551Z,12.30
2022-12-01T14:17:45.701Z,9.82
2022-12-01T14:19:53.508Z,9.20
2022-12-01T14:22:29.609Z,8.40
2022-12-01T14:24:53.196Z,9.70
2022-12-01T14:26:57.474Z,8.45
2022-12-01T14:29:35.421Z,8.25
2022-12-01T14:31:50.133Z,8.45
2022-12-01T14:34:18.787Z,8.45
2022-12-01T14:36:44.476Z,8.20
2022-12-01T14:38:52.819Z,7.85
2022-12-01T14:40:55.123Z,6.90
2022-12-01T14:43:17.517Z,6.72
2022-12-01T14:45:47.989Z,6.88
2022-12-01T14:48:01.880Z,7.10
2022-12-01T14:50:30.436Z,7.20
2022-12-01T14:52:41.663Z,7.28
2022-12-01T14:54:53.187Z,7.00
2022-12-01T14:57:05.653Z,7.32
2022-12-01T14:59:35.508Z,6.80
2022-12-01T15:01:38.641Z,6.85
2022-12-01T15:03:47.428Z,6.68
2022-12-01T15:06:00.292Z,6.60
2022-12-01T15:08:40.398Z,7.60
2022-12-01T15:10:39.520Z,7.40
2022-12-01T15:12:42.461Z,8.32
2022-12-01T15:14:51.623Z,8.10
2022-12-01T15:17:02.772Z,8.13
2022-12-01T15:19:41.424Z,6.53
2022-12-01T15:21:51.736Z,7.72
2022-12-01T15:24:05.697Z,7.15
2022-12-01T15:26:20.841Z,6.70
2022-12-01T15:28:36.608Z,7.00
2022-12-01T15:30:41.885Z,6.78
2022-12-01T15:32:46.048Z,6.80
2022-12-01T15:34:53.349Z,7.97
2022-12-01T15:36:59.708Z,8.35
2022-12-01T15:39:20.941Z,8.43
2022-12-01T15:41:31.146Z,8.35
2022-12-01T15:43:40.249Z,8.98
2022-12-01T15:45:50.905Z,9.23
2022-12-01T15:47:56.724Z,9.48
2022-12-01T15:50:05.877Z,8.70
2022-12-01T15:52:12.896Z,9.93
2022-12-01T15:54:23.700Z,10.43
2022-12-01T15:56:37.862Z,9.65
2022-12-01T15:58:50.222Z,10.68
2022-12-01T16:01:09.983Z,9.55
2022-12-01T16:03:14.400Z,9.73
2022-12-01T16:05:28.909Z,11.75
2022-12-01T16:08:11.455Z,12.52
2022-12-01T16:10:27.176Z,12.93
2022-12-01T16:12:34.944Z,11.48
2022-12-01T16:15:00.411Z,11.88
2022-12-01T16:17:14.256Z,11.05
2022-12-01T16:19:19.176Z,9.48
2022-12-01T16:21:27.688Z,8.80
2022-12-01T16:23:36.008Z,8.75
2022-12-01T16:25:45.368Z,8.82
2022-12-01T16:27:58.446Z,9.75
2022-12-01T16:30:04.265Z,10.40
2022-12-01T16:32:21.001Z,9.40
2022-12-01T16:34:45.305Z,9.52
2022-12-01T16:36:47.605Z,9.80
2022-12-01T16:38:51.996Z,10.35
2022-12-01T16:41:02.009Z,9.48
2022-12-01T16:43:05.096Z,11.85
2022-12-01T16:45:15.321Z,11.65
2022-12-01T16:47:26.353Z,11.50
2022-12-01T16:49:35.380Z,12.43
2022-12-01T16:51:55.414Z,11.73
2022-12-01T16:54:06.911Z,11.23
2022-12-01T16:56:31.432Z,17.85
2022-12-01T16:58:49.860Z,16.38
2022-12-01T17:00:55.166Z,12.82
2022-12-01T17:03:01.314Z,14.07
2022-12-01T17:05:06.010Z,14.23
2022-12-01T17:07:09.505Z,15.50
2022-12-01T17:09:11.744Z,14.98
2022-12-01T17:11:16.278Z,21.83
2022-12-01T17:13:23.605Z,17.98
2022-12-01T17:15:30.342Z,21.38
2022-12-01T17:17:33.343Z,17.75
2022-12-01T17:19:36.305Z,16.80
2022-12-01T17:21:39.604Z,15.68
2022-12-01T17:23:42.747Z,15.77
2022-12-01T17:25:45.104Z,17.50
2022-12-01T17:27:47.531Z,16.13
2022-12-01T17:29:50.598Z,16.30
2022-12-01T17:32:03.738Z,20.65
2022-12-01T17:34:15.597Z,19.13
2022-12-01T17:38:24.109Z,19.90
2022-12-01T17:40:39.140Z,15.77
2022-12-01T17:42:49.985Z,15.20
2022-12-01T17:44:56.459Z,16.52
2022-12-01T17:46:59.281Z,20.92
2022-12-01T17:49:19.759Z,21.27
2022-12-01T17:51:34.382Z,16.80
2022-12-01T17:53:42.414Z,17.23
2022-12-01T17:55:46.687Z,22.70
2022-12-01T17:57:54.727Z,24.42
2022-12-01T18:00:06.229Z,15.60
2022-12-01T18:02:17.469Z,23.50
2022-12-01T18:04:22.760Z,22.58
2022-12-01T18:06:27.011Z,25.33
2022-12-01T18:08:31.792Z,17.60
2022-12-01T18:10:36.467Z,18.95
2022-12-01T18:12:44.840Z,16.10
2022-12-01T18:14:48.605Z,24.10
2022-12-01T18:16:54.734Z,30.67
2022-12-01T18:18:59.684Z,21.15
2022-12-01T18:21:05.678Z,27.58
2022-12-01T18:23:13.778Z,17.60
2022-12-01T18:25:17.200Z,14.05
2022-12-01T18:27:19.419Z,22.73
2022-12-01T18:29:30.506Z,19.90
2022-12-01T18:31:37.822Z,19.25
2022-12-01T18:33:44.219Z,17.70
2022-12-01T18:35:46.702Z,15.88
2022-12-01T18:37:56.207Z,14.88
2022-12-01T18:40:16.850Z,17.50
2022-12-01T18:42:32.042Z,14.80
2022-12-01T18:44:35.460Z,15.55
2022-12-01T18:46:39.000Z,26.10
2022-12-01T18:48:50.685Z,17.30
2022-12-01T18:51:06.060Z,23.70
2022-12-01T18:53:09.469Z,18.02
2022-12-01T18:55:20.823Z,16.65
2022-12-01T18:57:23.189Z,14.85
2022-12-01T18:59:27.812Z,14.55
2022-12-01T19:01:40.930Z,19.67
2022-12-01T19:03:47.484Z,21.02
2022-12-01T19:05:59.124Z,17.88
2022-12-01T19:08:01.202Z,16.80
2022-12-01T19:10:04.718Z,18.58
2022-12-01T19:12:07.822Z,20.38
2022-12-01T19:14:18.551Z,20.15
2022-12-01T19:16:21.998Z,22.13
2022-12-01T19:18:28.075Z,20.10
2022-12-01T19:20:31.446Z,30.23
2022-12-01T19:22:38.352Z,29.52
2022-12-01T19:24:52.531Z,20.88
2022-12-01T19:26:55.474Z,22.10
2022-12-01T19:29:00.015Z,20.80
2022-12-01T19:31:08.871Z,17.70
2022-12-01T19:33:22.334Z,18.00
2022-12-01T19:35:25.854Z,16.70
2022-12-01T19:37:28.363Z,17.10
2022-12-01T19:39:35.887Z,15.85
2022-12-01T19:41:38.974Z,18.17
2022-12-01T19:43:42.659Z,16.50
2022-12-01T19:45:47.167Z,19.75
2022-12-01T19:47:51.850Z,19.20
2022-12-01T19:49:56.321Z,19.02
2022-12-01T19:52:07.110Z,21.15
2022-12-01T19:54:17.927Z,19.35
2022-12-01T19:56:22.380Z,24.50
2022-12-01T19:58:28.223Z,20.75
2022-12-01T20:00:30.885Z,19.17
2022-12-01T20:02:34.245Z,17.20
2022-12-01T20:04:41.393Z,16.88
2022-12-01T20:06:48.265Z,17.85
2022-12-01T20:08:52.774Z,16.50
2022-12-01T20:10:54.881Z,15.98
2022-12-01T20:12:57.431Z,14.20
2022-12-01T20:15:01.208Z,15.80
2022-12-01T20:17:14.349Z,16.15
2022-12-01T20:19:20.859Z,13.45
2022-12-01T20:21:27.817Z,13.93
2022-12-01T20:23:30.347Z,12.50
2022-12-01T20:25:34.198Z,14.38
2022-12-01T20:27:42.958Z,16.42
2022-12-01T20:29:46.339Z,15.18
2022-12-01T20:31:51.264Z,13.82
2022-12-01T20:33:55.319Z,12.60
2022-12-01T20:36:03.889Z,13.23
2022-12-01T20:38:06.286Z,12.30
2022-12-01T20:40:10.765Z,11.40
2022-12-01T20:42:15.197Z,10.93
2022-12-01T20:44:18.225Z,13.57
2022-12-01T20:46:26.855Z,13.02
2022-12-01T20:48:29.394Z,14.57
2022-12-01T20:50:34.713Z,13.82
2022-12-01T20:52:41.603Z,12.23
2022-12-01T20:54:45.335Z,12.32
2022-12-01T20:56:48.003Z,11.48
2022-12-01T20:58:51.173Z,11.60
2022-12-01T21:00:53.340Z,11.50
2022-12-01T21:02:57.171Z,11.98
2022-12-01T21:04:59.588Z,12.60
2022-12-01T21:07:03.158Z,13.32
2022-12-01T21:09:05.403Z,15.38
2022-12-01T21:11:47.399Z,14.38
2022-12-01T21:13:49.587Z,13.07
2022-12-01T21:15:57.337Z,13.15
2022-12-01T21:18:22.825Z,13.98
2022-12-01T21:20:40.845Z,14.02
2022-12-01T21:22:43.010Z,12.90
2022-12-01T21:24:50.001Z,13.95
2022-12-01T21:26:52.141Z,13.07
2022-12-01T21:28:58.582Z,14.43
2022-12-01T21:31:13.144Z,13.98
2022-12-01T21:33:32.802Z,11.93
2022-12-01T21:35:34.802Z,11.93
2022-12-01T21:37:36.797Z,11.35
2022-12-01T21:39:41.362Z,11.65
2022-12-01T21:41:43.428Z,11.68
2022-12-01T21:43:46.596Z,11.85
2022-12-01T21:45:55.235Z,12.18
2022-12-01T21:48:01.489Z,12.48
2022-12-01T21:50:09.324Z,13.45
2022-12-01T21:52:18.592Z,12.93
2022-12-01T21:54:23.423Z,13.68
2022-12-01T21:56:32.094Z,12.95
2022-12-01T21:58:37.595Z,13.65
2022-12-01T22:00:40.116Z,14.48
2022-12-01T22:03:23.532Z,13.75
2022-12-01T22:05:40.747Z,13.73
2022-12-01T22:07:43.643Z,13.38
2022-12-01T22:09:45.800Z,14.63
2022-12-01T22:11:52.188Z,15.35
2022-12-01T22:14:01.251Z,14.45
2022-12-01T22:16:09.846Z,15.50
2022-12-01T22:18:23.642Z,17.75
2022-12-01T22:20:25.652Z,15.63
2022-12-01T22:22:29.769Z,15.13
2022-12-01T22:24:42.977Z,15.20
2022-12-01T22:26:53.826Z,14.23
2022-12-01T22:28:58.330Z,14.40
2022-12-01T22:31:00.315Z,13.93
2022-12-01T22:33:06.728Z,14.27
2022-12-01T22:35:30.517Z,13.50
2022-12-01T22:37:43.986Z,13.13
2022-12-01T22:39:48.015Z,13.65
2022-12-01T22:41:58.896Z,14.13
2022-12-01T22:44:01.744Z,13.73
2022-12-01T22:46:23.012Z,14.15
2022-12-01T22:49:00.895Z,15.75
2022-12-01T22:51:36.839Z,13.75
2022-12-01T22:53:40.891Z,13.70
2022-12-01T22:55:43.074Z,14.25
2022-12-01T22:57:46.410Z,13.02
2022-12-01T22:59:50.516Z,14.52
2022-12-01T23:01:59.331Z,14.25
2022-12-01T23:04:28.676Z,14.13
2022-12-01T23:06:52.290Z,14.25
2022-12-01T23:08:54.151Z,13.43
2022-12-01T23:10:56.125Z,13.95
2022-12-01T23:13:01.203Z,13.68
2022-12-01T23:15:25.615Z,14.05
2022-12-01T23:17:33.412Z,13.98
2022-12-01T23:19:35.752Z,12.75
2022-12-01T23:21:37.831Z,13.90
2022-12-01T23:23:42.708Z,13.65
2022-12-01T23:25:47.486Z,13.75
2022-12-01T23:27:52.112Z,14.13
2022-12-01T23:29:54.382Z,14.32
2022-12-01T23:31:56.485Z,13.38
2022-12-01T23:33:58.695Z,16.02
2022-12-01T23:36:14.627Z,13.88
2022-12-01T23:38:29.163Z,12.80
2022-12-01T23:40:34.163Z,13.07
2022-12-01T23:42:36.161Z,12.55
2022-12-01T23:44:45.650Z,15.32
2022-12-01T23:46:54.423Z,15.68
2022-12-01T23:49:03.405Z,15.05
2022-12-01T23:51:14.141Z,13.95
2022-12-01T23:53:31.455Z,12.70
2022-12-01T23:55:34.373Z,14.73
2022-12-01T23:57:37.220Z,21.13
2022-12-01T23:59:39.230Z,15.57
